Time;durP1;ratioP1;P1;durP2;ratioP2;P2;SDS_P1;SDS_P2;PMS_P1;PMS_P2;Temp;Humidity;BMP_temperature;BMP_pressure;BME280_temperature;BME280_humidity;BME280_pressure;Samples;Min_cycle;Max_cycle;Signal;HPM_P1;HPM_P2
2022/11/22 00:00:16;;;;;;;3.45;1.00;;;5.40;99.90;;;;;;5013982;28;20159;-86
2022/11/22 00:02:43;;;;;;;4.38;1.15;;;5.30;99.90;;;;;;4998753;28;20053;-86
2022/11/22 00:05:10;;;;;;;2.50;1.02;;;5.30;99.90;;;;;;5009808;28;20220;-85
2022/11/22 00:07:37;;;;;;;4.03;0.90;;;5.30;99.90;;;;;;4994722;28;20167;-86
2022/11/22 00:10:05;;;;;;;1.63;0.82;;;5.20;99.90;;;;;;4993761;28;20063;-86
2022/11/22 00:12:32;;;;;;;1.40;0.90;;;5.30;99.90;;;;;;5008040;28;20521;-86
2022/11/22 00:14:59;;;;;;;1.75;0.95;;;5.20;99.90;;;;;;5030559;28;20140;-87
2022/11/22 00:17:26;;;;;;;1.92;0.80;;;5.20;99.90;;;;;;5013069;28;20354;-86
2022/11/22 00:19:53;;;;;;;0.95;0.60;;;5.20;99.90;;;;;;5010066;28;20052;-86
2022/11/22 00:22:20;;;;;;;3.55;0.80;;;5.20;99.90;;;;;;4999817;28;20052;-85
2022/11/22 00:24:47;;;;;;;1.40;0.80;;;5.20;99.90;;;;;;5010800;28;20072;-86
2022/11/22 00:27:14;;;;;;;2.17;0.70;;;5.20;99.90;;;;;;5013477;28;20052;-86
2022/11/22 00:29:41;;;;;;;1.60;0.70;;;5.10;99.90;;;;;;5013253;28;20103;-86
2022/11/22 00:32:08;;;;;;;1.63;0.80;;;5.10;99.90;;;;;;5013266;28;20060;-86
2022/11/22 00:34:35;;;;;;;1.95;0.60;;;5.10;99.90;;;;;;5010060;28;20059;-86
2022/11/22 00:37:01;;;;;;;0.93;0.70;;;5.10;99.90;;;;;;5012286;28;20511;-85
2022/11/22 00:39:28;;;;;;;3.47;0.90;;;5.10;99.90;;;;;;5012881;28;20569;-86
2022/11/22 00:41:55;;;;;;;2.85;1.02;;;5.10;99.90;;;;;;5013322;28;20044;-86
2022/11/22 00:44:22;;;;;;;2.05;0.90;;;5.10;99.90;;;;;;5013154;28;20047;-86
2022/11/22 00:46:49;;;;;;;1.45;0.70;;;5.10;99.90;;;;;;5029591;28;20052;-86
2022/11/22 00:49:16;;;;;;;1.50;0.80;;;5.10;99.90;;;;;;5029834;28;20518;-84
2022/11/22 00:51:43;;;;;;;0.82;0.47;;;5.10;99.90;;;;;;5029246;28;20079;-86
2022/11/22 00:54:10;;;;;;;1.20;0.55;;;5.00;99.90;;;;;;5020147;28;20431;-86
2022/11/22 00:56:37;;;;;;;1.20;0.85;;;5.00;99.90;;;;;;5014249;28;20642;-86
2022/11/22 00:59:04;;;;;;;1.35;0.60;;;5.10;99.90;;;;;;5017623;28;20059;-85
2022/11/22 01:01:30;;;;;;;0.75;0.55;;;5.10;99.90;;;;;;5005365;28;20131;-86
2022/11/22 01:03:57;;;;;;;1.15;0.60;;;5.10;99.90;;;;;;5034570;28;20056;-86
2022/11/22 01:06:24;;;;;;;1.42;0.55;;;5.00;99.90;;;;;;5018289;28;20057;-86
2022/11/22 01:08:51;;;;;;;2.60;0.77;;;5.00;99.90;;;;;;5017953;28;20071;-86
2022/11/22 01:11:19;;;;;;;1.10;0.68;;;5.00;99.90;;;;;;5017582;28;20571;-86
2022/11/22 01:13:46;;;;;;;1.40;0.47;;;5.00;99.90;;;;;;5033505;28;20088;-85
2022/11/22 02:27:39;;;;;;;1.02;0.70;;;5.30;99.90;;;;;;5043349;28;20135;-80
2022/11/22 02:30:07;;;;;;;0.45;0.40;;;5.30;99.90;;;;;;5011354;28;20055;-80
2022/11/22 02:32:33;;;;;;;1.33;0.90;;;5.30;99.90;;;;;;5013216;23;20055;-79
2022/11/22 02:35:00;;;;;;;2.92;0.47;;;5.30;99.90;;;;;;5011659;28;20057;-79
2022/11/22 02:37:28;;;;;;;0.47;0.43;;;5.30;99.90;;;;;;5027993;28;20049;-78
2022/11/22 02:39:57;;;;;;;0.77;0.77;;;5.40;99.90;;;;;;5010568;28;20483;-77
2022/11/22 02:42:25;;;;;;;0.52;0.50;;;5.40;99.90;;;;;;5019871;28;20120;-78
2022/11/22 02:44:51;;;;;;;0.40;0.40;;;5.40;99.90;;;;;;5028938;28;20056;-79
2022/11/22 02:47:19;;;;;;;1.38;0.75;;;5.40;99.90;;;;;;5028765;28;20049;-79
2022/11/22 02:49:45;;;;;;;0.80;0.50;;;5.50;99.90;;;;;;5028946;28;20114;-78
2022/11/22 02:52:16;;;;;;;1.27;0.70;;;5.50;99.90;;;;;;5012362;28;20065;-78
2022/11/22 02:54:44;;;;;;;1.40;0.57;;;5.50;99.90;;;;;;5012488;28;20067;-78
2022/11/22 02:57:11;;;;;;;2.15;0.57;;;5.50;99.90;;;;;;5013427;28;20079;-79
2022/11/22 02:59:38;;;;;;;1.13;0.60;;;5.60;99.90;;;;;;5012571;28;20120;-78
2022/11/22 03:02:04;;;;;;;0.40;0.40;;;5.60;99.90;;;;;;5029449;28;20204;-78
2022/11/22 03:04:31;;;;;;;0.70;0.70;;;5.60;99.90;;;;;;5015955;28;20048;-78
2022/11/22 03:06:58;;;;;;;0.88;0.50;;;5.60;99.90;;;;;;5048351;28;20509;-78
2022/11/22 03:09:26;;;;;;;2.38;0.68;;;5.60;99.90;;;;;;5032442;28;20470;-78
2022/11/22 03:11:53;;;;;;;0.73;0.50;;;5.60;99.90;;;;;;5015357;28;20044;-79
2022/11/22 03:14:19;;;;;;;0.40;0.38;;;5.60;99.90;;;;;;5031677;28;20044;-79
2022/11/22 03:16:46;;;;;;;0.80;0.43;;;5.60;99.90;;;;;;5015792;28;20049;-79
2022/11/22 03:19:13;;;;;;;0.75;0.60;;;5.60;99.90;;;;;;5048146;28;20041;-79
2022/11/22 03:21:41;;;;;;;0.65;0.50;;;5.60;99.90;;;;;;5031746;28;20048;-79
2022/11/22 03:24:08;;;;;;;0.50;0.40;;;5.60;99.90;;;;;;5048532;28;20052;-79
2022/11/22 03:26:35;;;;;;;1.50;0.50;;;5.50;99.90;;;;;;5048175;28;20071;-78
2022/11/22 03:29:02;;;;;;;0.38;0.38;;;5.50;99.90;;;;;;5048449;28;20053;-78
2022/11/22 03:31:28;;;;;;;2.33;0.50;;;5.50;99.90;;;;;;5047990;28;20613;-79
2022/11/22 03:33:55;;;;;;;1.63;0.45;;;5.50;99.90;;;;;;5031181;28;20146;-78
2022/11/22 03:36:22;;;;;;;0.75;0.40;;;5.50;99.90;;;;;;5031377;28;20048;-79
2022/11/22 03:38:49;;;;;;;0.60;0.40;;;5.50;99.90;;;;;;5032260;28;20528;-77
2022/11/22 03:41:16;;;;;;;2.50;0.60;;;5.40;99.90;;;;;;5047712;28;20052;-79
2022/11/22 03:43:43;;;;;;;0.75;0.50;;;5.40;99.90;;;;;;5047764;28;20040;-79
2022/11/22 03:46:14;;;;;;;1.33;0.50;;;5.50;99.90;;;;;;5031648;28;20855;-78
2022/11/22 03:48:41;;;;;;;2.92;0.50;;;5.40;99.90;;;;;;5031651;28;20414;-78
2022/11/22 03:51:08;;;;;;;1.63;0.63;;;5.50;99.90;;;;;;5048294;28;20075;-78
2022/11/22 03:53:36;;;;;;;0.40;0.40;;;5.40;99.90;;;;;;5030513;28;20495;-79
2022/11/22 03:56:03;;;;;;;0.68;0.57;;;5.40;99.90;;;;;;5065179;28;20071;-78
2022/11/22 03:58:30;;;;;;;0.30;0.30;;;5.40;99.90;;;;;;5047480;28;20068;-79
2022/11/22 04:00:57;;;;;;;0.68;0.30;;;5.40;99.90;;;;;;5047988;28;20044;-78
2022/11/22 04:03:24;;;;;;;0.88;0.47;;;5.40;99.90;;;;;;5030699;28;20040;-78
2022/11/22 04:05:50;;;;;;;1.02;0.50;;;5.40;99.90;;;;;;5048352;28;20071;-79
2022/11/22 04:08:17;;;;;;;0.98;0.68;;;5.40;99.90;;;;;;5030445;28;20056;-78
2022/11/22 04:10:44;;;;;;;0.52;0.50;;;5.40;99.90;;;;;;5047613;28;20060;-78
2022/11/22 04:13:10;;;;;;;0.40;0.40;;;5.40;99.90;;;;;;5030418;28;20147;-78
2022/11/22 04:15:37;;;;;;;1.95;0.50;;;5.40;99.90;;;;;;5047586;28;20044;-78
2022/11/22 04:18:04;;;;;;;0.40;0.35;;;5.40;99.90;;;;;;5047289;28;20044;-78
2022/11/22 04:23:20;;;;;;;1.98;0.80;;;5.50;99.90;;;;;;5049624;28;20625;-79
2022/11/22 04:25:48;;;;;;;0.77;0.40;;;5.50;99.90;;;;;;5047614;28;20048;-78
2022/11/22 04:28:16;;;;;;;0.68;0.30;;;5.40;99.90;;;;;;5046884;28;20052;-78
2022/11/22 04:33:28;;;;;;;1.15;0.40;;;5.40;99.90;;;;;;5049313;28;20064;-78
2022/11/22 04:35:55;;;;;;;0.55;0.40;;;5.50;99.90;;;;;;5047933;28;20175;-79
2022/11/22 04:38:22;;;;;;;0.63;0.40;;;5.50;99.90;;;;;;5063016;28;20053;-79
2022/11/22 04:40:50;;;;;;;0.60;0.50;;;5.40;99.90;;;;;;5030423;28;20048;-78
2022/11/22 04:46:07;;;;;;;0.57;0.30;;;5.50;99.90;;;;;;5030300;28;20045;-78
2022/11/22 04:48:34;;;;;;;0.77;0.50;;;5.50;99.90;;;;;;5010580;28;20044;-78
2022/11/22 04:53:45;;;;;;;2.40;1.30;;;5.50;99.90;;;;;;5024406;28;20053;-79
2022/11/22 04:56:12;;;;;;;1.40;0.40;;;5.50;99.90;;;;;;5006840;28;20057;-79
2022/11/22 04:58:39;;;;;;;0.70;0.50;;;5.50;99.90;;;;;;5023538;28;20045;-79
2022/11/22 05:01:06;;;;;;;0.68;0.60;;;5.60;99.90;;;;;;5007229;28;20045;-78
2022/11/22 05:03:33;;;;;;;0.40;0.40;;;5.60;99.90;;;;;;4992936;28;20057;-80
2022/11/22 05:06:01;;;;;;;0.40;0.40;;;5.60;99.90;;;;;;5009176;28;20045;-82
2022/11/22 05:08:28;;;;;;;0.20;0.20;;;5.60;99.90;;;;;;5006920;28;20073;-81
2022/11/22 05:10:55;;;;;;;1.23;0.47;;;5.60;99.90;;;;;;5009604;28;20053;-79
2022/11/22 05:13:42;;;;;;;0.40;0.40;;;5.60;99.90;;;;;;5007096;28;20056;-82
2022/11/22 05:16:10;;;;;;;1.15;0.50;;;5.70;99.90;;;;;;5018064;28;20184;-81
2022/11/22 05:18:38;;;;;;;2.10;0.60;;;5.70;99.90;;;;;;4991403;28;20128;-80
2022/11/22 05:21:06;;;;;;;0.63;0.43;;;5.70;99.90;;;;;;5029540;28;20746;-82
2022/11/22 05:26:18;;;;;;;0.70;0.38;;;5.70;99.90;;;;;;5004264;28;20083;-80
2022/11/22 05:28:44;;;;;;;1.45;0.50;;;5.70;99.90;;;;;;5004978;28;20184;-82
2022/11/22 05:31:13;;;;;;;1.55;0.50;;;5.70;99.90;;;;;;4999497;28;20175;-81
2022/11/22 05:33:41;;;;;;;0.60;0.40;;;5.70;99.90;;;;;;4996468;28;20049;-80
2022/11/22 05:36:07;;;;;;;0.65;0.50;;;5.70;99.90;;;;;;5004204;28;20452;-81
2022/11/22 05:38:34;;;;;;;0.57;0.30;;;5.70;99.90;;;;;;4991651;28;20045;-80
2022/11/22 05:41:02;;;;;;;0.47;0.40;;;5.70;99.90;;;;;;4993776;28;20044;-80
2022/11/22 05:43:29;;;;;;;0.68;0.40;;;5.70;99.90;;;;;;5003725;28;20049;-81
2022/11/22 05:45:55;;;;;;;0.35;0.35;;;5.70;99.90;;;;;;5001439;28;20128;-81
2022/11/22 05:48:22;;;;;;;0.40;0.30;;;5.60;99.90;;;;;;5022663;28;20057;-81
2022/11/22 05:50:49;;;;;;;0.50;0.40;;;5.70;99.90;;;;;;5005445;28;20048;-81
2022/11/22 05:53:15;;;;;;;0.35;0.35;;;5.60;99.90;;;;;;5005512;28;20522;-82
2022/11/22 05:55:42;;;;;;;0.40;0.30;;;5.60;99.90;;;;;;5006366;28;20444;-82
2022/11/22 05:58:09;;;;;;;0.65;0.55;;;5.60;99.90;;;;;;5003046;28;20049;-83
2022/11/22 06:00:36;;;;;;;0.30;0.30;;;5.60;99.90;;;;;;4988849;28;20593;-81
2022/11/22 06:03:03;;;;;;;0.45;0.30;;;5.60;99.90;;;;;;5001759;28;20053;-81
2022/11/22 06:05:30;;;;;;;0.40;0.40;;;5.50;99.90;;;;;;5005356;28;20308;-81
2022/11/22 06:07:58;;;;;;;0.60;0.40;;;5.50;99.90;;;;;;4994135;28;20045;-78
2022/11/22 06:10:25;;;;;;;0.40;0.40;;;5.50;99.90;;;;;;5012926;28;20140;-78
2022/11/22 06:12:52;;;;;;;0.60;0.60;;;5.50;99.90;;;;;;5014703;28;20045;-77
2022/11/22 06:15:19;;;;;;;0.30;0.30;;;5.50;99.90;;;;;;5017298;28;20049;-78
2022/11/22 06:17:46;;;;;;;0.65;0.50;;;5.50;99.90;;;;;;5003061;28;20069;-78
2022/11/22 06:20:13;;;;;;;0.50;0.50;;;5.40;99.90;;;;;;4995526;28;20050;-77
2022/11/22 06:22:40;;;;;;;0.55;0.30;;;5.40;99.90;;;;;;5027403;28;20044;-78
2022/11/22 06:25:09;;;;;;;0.38;0.38;;;5.40;99.90;;;;;;5019174;28;20055;-77
2022/11/22 06:27:36;;;;;;;0.40;0.40;;;5.40;99.90;;;;;;5002312;28;20068;-77
2022/11/22 06:30:03;;;;;;;0.98;0.65;;;5.40;99.90;;;;;;5016693;28;20053;-78
2022/11/22 06:32:32;;;;;;;0.35;0.30;;;5.30;99.90;;;;;;5018535;28;20639;-79
2022/11/22 06:35:00;;;;;;;0.57;0.57;;;5.30;99.90;;;;;;4998706;28;20530;-79
2022/11/22 06:37:28;;;;;;;0.30;0.30;;;5.30;99.90;;;;;;5009551;28;20219;-77
2022/11/22 06:39:54;;;;;;;0.40;0.40;;;5.30;99.90;;;;;;4992222;28;20076;-77
2022/11/22 06:42:21;;;;;;;0.30;0.30;;;5.30;99.90;;;;;;5022671;28;20046;-77
2022/11/22 06:44:48;;;;;;;0.68;0.40;;;5.30;99.90;;;;;;5017777;28;20057;-78
2022/11/22 06:47:16;;;;;;;0.65;0.65;;;5.30;99.90;;;;;;5004567;28;20055;-77
2022/11/22 06:49:44;;;;;;;0.70;0.47;;;5.30;99.90;;;;;;5007991;28;20049;-77
2022/11/22 06:52:11;;;;;;;0.85;0.40;;;5.30;99.90;;;;;;5010032;28;20140;-77
2022/11/22 06:54:37;;;;;;;0.35;0.35;;;5.30;99.90;;;;;;5013346;28;20041;-80
2022/11/22 06:57:04;;;;;;;0.40;0.40;;;5.20;99.90;;;;;;5002670;28;20080;-78
2022/11/22 06:59:31;;;;;;;0.45;0.40;;;5.20;99.90;;;;;;5002951;28;20042;-77
2022/11/22 07:01:58;;;;;;;0.35;0.35;;;5.20;99.90;;;;;;5015536;28;20068;-79
2022/11/22 07:04:32;;;;;;;0.63;0.43;;;5.20;99.90;;;;;;5008011;28;20055;-77
2022/11/22 07:06:59;;;;;;;0.70;0.40;;;5.20;99.90;;;;;;5023136;28;20156;-77
2022/11/22 07:09:25;;;;;;;0.55;0.40;;;5.20;99.90;;;;;;5000495;28;20220;-77
2022/11/22 07:11:52;;;;;;;0.30;0.30;;;5.20;99.90;;;;;;5017023;28;20048;-77
2022/11/22 07:14:19;;;;;;;0.73;0.60;;;5.20;99.90;;;;;;5016307;28;20496;-78
2022/11/22 07:16:46;;;;;;;0.55;0.35;;;5.30;99.90;;;;;;5019966;28;20099;-77
2022/11/22 07:19:13;;;;;;;0.40;0.40;;;5.20;99.90;;;;;;5063027;28;20197;-78
2022/11/22 07:21:39;;;;;;;0.38;0.32;;;5.20;99.90;;;;;;5027993;28;20402;-77
2022/11/22 07:24:07;;;;;;;1.40;0.52;;;5.20;99.90;;;;;;5047620;28;20198;-77
2022/11/22 07:26:34;;;;;;;0.30;0.30;;;5.20;99.90;;;;;;5047304;28;20044;-78
2022/11/22 07:29:00;;;;;;;0.38;0.30;;;5.10;99.90;;;;;;5047610;28;20080;-78
2022/11/22 07:31:27;;;;;;;0.30;0.30;;;5.10;99.90;;;;;;5048062;28;20063;-77
2022/11/22 07:33:56;;;;;;;0.20;0.20;;;5.10;99.90;;;;;;5047624;28;20052;-77
2022/11/22 07:36:23;;;;;;;0.30;0.30;;;5.00;99.90;;;;;;5047780;28;20070;-78
2022/11/22 07:38:50;;;;;;;0.30;0.30;;;5.00;99.90;;;;;;5031682;28;20079;-78
2022/11/22 07:41:17;;;;;;;0.80;0.30;;;4.90;99.90;;;;;;5047232;28;20075;-77
2022/11/22 07:43:45;;;;;;;0.30;0.30;;;4.90;99.90;;;;;;5047455;28;20404;-77
2022/11/22 07:46:28;;;;;;;0.20;0.20;;;4.80;99.90;;;;;;5047610;28;20048;-77
2022/11/22 07:48:56;;;;;;;0.30;0.30;;;4.80;99.90;;;;;;5047541;28;20560;-77
2022/11/22 07:51:23;;;;;;;0.57;0.57;;;4.80;99.90;;;;;;5047045;28;20320;-77
2022/11/22 07:53:50;;;;;;;0.30;0.30;;;4.80;99.90;;;;;;5021030;28;20181;-77
2022/11/22 07:56:17;;;;;;;1.17;0.40;;;4.80;99.90;;;;;;5010578;28;20632;-78
2022/11/22 07:58:43;;;;;;;0.38;0.38;;;4.80;99.90;;;;;;5007391;28;20132;-77
2022/11/22 08:01:12;;;;;;;0.43;0.40;;;4.80;99.90;;;;;;4990830;28;20525;-77
2022/11/22 08:03:38;;;;;;;0.40;0.40;;;4.80;99.90;;;;;;5001126;28;20069;-77
2022/11/22 08:06:06;;;;;;;0.30;0.30;;;4.90;99.90;;;;;;5006341;28;20045;-78
2022/11/22 08:08:34;;;;;;;0.35;0.35;;;5.00;99.90;;;;;;5003808;28;20220;-78
2022/11/22 08:11:01;;;;;;;0.30;0.30;;;5.10;99.90;;;;;;5003903;28;20049;-77
2022/11/22 08:13:28;;;;;;;0.30;0.30;;;5.20;99.90;;;;;;5006144;28;20045;-78
2022/11/22 08:15:59;;;;;;;0.90;0.40;;;5.30;99.90;;;;;;5045316;28;20049;-79
2022/11/22 08:18:31;;;;;;;0.52;0.40;;;5.30;99.90;;;;;;5028358;28;20053;-79
2022/11/22 08:21:09;;;;;;;1.63;0.65;;;5.50;99.90;;;;;;5027532;28;20045;-79
2022/11/22 08:23:35;;;;;;;1.73;0.80;;;5.60;99.90;;;;;;5010448;28;20386;-79
2022/11/22 08:26:03;;;;;;;0.65;0.43;;;5.70;99.90;;;;;;5007037;28;20124;-79
2022/11/22 08:28:29;;;;;;;1.08;0.55;;;5.70;99.90;;;;;;5004745;28;20045;-79
2022/11/22 08:31:04;;;;;;;0.93;0.52;;;5.80;99.90;;;;;;5004030;28;20056;-79
2022/11/22 08:33:31;;;;;;;1.17;0.80;;;5.90;99.90;;;;;;5021182;28;20045;-79
2022/11/22 08:35:58;;;;;;;1.52;0.60;;;6.00;99.90;;;;;;5007813;28;20065;-79
2022/11/22 08:38:25;;;;;;;1.13;0.60;;;6.10;99.90;;;;;;5006529;28;20432;-79
2022/11/22 08:40:52;;;;;;;0.57;0.50;;;6.20;99.90;;;;;;4990880;28;20533;-79
2022/11/22 08:43:19;;;;;;;1.67;0.82;;;6.30;99.90;;;;;;5002504;28;20670;-78
2022/11/22 08:45:53;;;;;;;1.42;0.70;;;6.40;99.90;;;;;;5026845;28;20134;-79
2022/11/22 08:48:20;;;;;;;1.33;0.70;;;6.50;99.90;;;;;;5011185;28;20045;-79
2022/11/22 08:50:55;;;;;;;0.73;0.63;;;6.60;99.90;;;;;;5010678;28;20045;-79
2022/11/22 08:53:22;;;;;;;1.30;0.70;;;6.60;99.90;;;;;;5010788;28;20072;-79
2022/11/22 08:55:49;;;;;;;1.17;0.75;;;6.70;99.90;;;;;;5046226;28;20052;-79
2022/11/22 08:58:16;;;;;;;1.30;0.70;;;6.80;99.90;;;;;;5046085;28;20052;-79
2022/11/22 09:00:43;;;;;;;0.57;0.52;;;6.90;99.90;;;;;;5030050;28;20152;-79
2022/11/22 09:03:09;;;;;;;1.35;0.80;;;7.00;99.90;;;;;;5029139;28;20055;-79
2022/11/22 09:05:36;;;;;;;1.35;0.77;;;7.10;99.90;;;;;;5029971;28;20060;-78
2022/11/22 09:08:23;;;;;;;0.95;0.52;;;7.20;99.90;;;;;;5035126;28;20048;-79
2022/11/22 09:10:49;;;;;;;2.83;0.82;;;7.30;99.90;;;;;;5029857;28;20060;-79
2022/11/22 09:13:16;;;;;;;0.70;0.70;;;7.40;99.90;;;;;;5045837;28;20059;-79
2022/11/22 09:15:43;;;;;;;1.80;0.70;;;7.40;99.90;;;;;;5019904;28;20046;-79
2022/11/22 09:18:09;;;;;;;1.13;0.70;;;7.50;99.90;;;;;;5022882;28;20516;-80
2022/11/22 09:20:36;;;;;;;0.90;0.70;;;7.60;99.90;;;;;;5004781;28;20458;-79
2022/11/22 09:23:03;;;;;;;1.17;0.70;;;7.60;99.90;;;;;;5002321;28;20152;-79
2022/11/22 09:25:30;;;;;;;1.83;0.80;;;7.60;99.90;;;;;;5003077;28;20049;-79
2022/11/22 09:28:02;;;;;;;2.30;0.80;;;7.70;99.90;;;;;;5022670;28;20067;-79
2022/11/22 09:30:29;;;;;;;1.47;0.70;;;7.60;99.90;;;;;;4998229;28;20090;-78
2022/11/22 09:32:56;;;;;;;1.25;0.68;;;7.60;99.90;;;;;;4992910;28;20152;-77
2022/11/22 09:35:23;;;;;;;1.13;0.60;;;7.60;99.90;;;;;;5010376;28;20087;-77
2022/11/22 09:37:49;;;;;;;2.28;1.20;;;7.60;99.90;;;;;;5006313;28;20041;-78
2022/11/22 09:40:17;;;;;;;2.00;0.52;;;7.70;99.90;;;;;;5006133;28;20128;-77
2022/11/22 09:42:56;;;;;;;3.92;0.65;;;7.70;99.90;;;;;;5012086;28;20218;-77
2022/11/22 09:46:03;;;;;;;1.70;0.63;;;7.70;99.90;;;;;;5021839;28;20067;-77
2022/11/22 09:49:10;;;;;;;0.82;0.60;;;7.80;99.90;;;;;;4985265;28;20052;-78
2022/11/22 09:51:40;;;;;;;0.93;0.60;;;7.90;99.90;;;;;;5005077;28;20075;-77
2022/11/22 09:54:10;;;;;;;1.45;0.65;;;7.90;99.90;;;;;;5025477;28;20079;-78
2022/11/22 09:56:36;;;;;;;0.60;0.50;;;7.90;99.90;;;;;;5022033;28;20478;-77
2022/11/22 09:59:12;;;;;;;1.27;0.50;;;7.90;99.90;;;;;;4989715;28;20859;-77
2022/11/22 10:01:42;;;;;;;1.38;0.70;;;8.00;99.90;;;;;;5007327;28;20049;-78
2022/11/22 10:04:11;;;;;;;1.13;0.60;;;8.00;99.90;;;;;;5005321;28;20058;-78
2022/11/22 10:06:40;;;;;;;1.38;0.52;;;8.00;99.90;;;;;;5014702;28;20064;-77
2022/11/22 10:09:32;;;;;;;0.73;0.70;;;8.00;99.90;;;;;;5025261;28;20479;-77
2022/11/22 10:12:10;;;;;;;0.65;0.60;;;8.10;99.90;;;;;;5025309;28;20107;-77
2022/11/22 10:14:58;;;;;;;2.03;0.90;;;8.10;99.90;;;;;;5010078;28;20094;-78
2022/11/22 10:17:27;;;;;;;1.15;0.60;;;8.10;99.90;;;;;;5026023;28;20479;-78
2022/11/22 10:20:04;;;;;;;0.50;0.50;;;8.10;99.90;;;;;;5043411;28;20087;-77
2022/11/22 10:22:31;;;;;;;1.25;0.63;;;8.10;99.90;;;;;;5022758;28;20064;-77
2022/11/22 10:24:59;;;;;;;1.27;0.80;;;8.20;99.90;;;;;;5017187;28;20124;-77
2022/11/22 10:27:31;;;;;;;0.50;0.47;;;8.30;99.90;;;;;;5021402;28;20381;-77
2022/11/22 10:30:05;;;;;;;1.35;0.80;;;8.30;99.90;;;;;;5008669;28;20056;-78
2022/11/22 10:32:55;;;;;;;1.38;0.73;;;8.30;99.90;;;;;;5003882;28;20088;-77
2022/11/22 10:35:51;;;;;;;1.13;0.60;;;8.30;99.90;;;;;;5008173;28;20052;-78
2022/11/22 10:38:45;;;;;;;0.93;0.55;;;8.30;99.90;;;;;;5006946;28;20057;-77
2022/11/22 10:41:38;;;;;;;1.00;0.60;;;8.30;99.90;;;;;;5022757;28;20069;-78
2022/11/22 10:44:12;;;;;;;1.52;0.63;;;8.40;99.90;;;;;;4989290;28;20064;-77
2022/11/22 10:47:03;;;;;;;1.77;0.63;;;8.50;99.90;;;;;;5021615;28;20463;-78
2022/11/22 10:49:45;;;;;;;2.95;0.85;;;8.50;99.90;;;;;;5022900;28;20057;-78
2022/11/22 10:52:35;;;;;;;1.25;0.82;;;8.60;99.90;;;;;;5022370;28;20045;-78
2022/11/22 10:55:27;;;;;;;1.20;0.70;;;8.70;99.90;;;;;;5003222;28;20046;-77
2022/11/22 10:57:57;;;;;;;1.60;0.80;;;8.80;99.90;;;;;;5015173;28;20055;-80
2022/11/22 11:00:25;;;;;;;4.00;1.13;;;8.90;99.90;;;;;;5017760;28;20464;-76
2022/11/22 11:03:11;;;;;;;0.68;0.65;;;9.00;99.90;;;;;;5005263;28;20510;-77
2022/11/22 11:06:02;;;;;;;0.82;0.70;;;9.10;99.90;;;;;;5012175;28;20168;-79
2022/11/22 11:09:09;;;;;;;1.00;0.90;;;9.30;99.90;;;;;;4995359;28;20463;-78
2022/11/22 11:11:56;;;;;;;2.30;1.08;;;9.40;99.90;;;;;;5002548;28;20064;-78
2022/11/22 11:14:29;;;;;;;3.38;0.90;;;9.40;99.90;;;;;;5012998;28;20049;-78
2022/11/22 11:16:57;;;;;;;2.60;1.15;;;9.60;99.90;;;;;;5019500;28;20489;-77
2022/11/22 11:19:24;;;;;;;2.25;1.50;;;9.70;99.90;;;;;;5019792;28;20079;-78
2022/11/22 11:21:59;;;;;;;1.67;1.20;;;9.90;99.90;;;;;;5016881;28;20049;-77
2022/11/22 11:24:27;;;;;;;1.10;1.00;;;9.90;99.90;;;;;;5013676;28;20056;-77
2022/11/22 11:26:55;;;;;;;2.95;0.98;;;10.00;99.90;;;;;;4998846;28;20609;-77
2022/11/22 11:29:32;;;;;;;1.08;0.80;;;10.00;99.90;;;;;;5016861;28;20041;-77
2022/11/22 11:32:06;;;;;;;1.48;0.98;;;10.10;99.90;;;;;;5000693;28;20065;-77
2022/11/22 11:34:33;;;;;;;1.90;1.00;;;10.00;99.90;;;;;;5015567;28;20049;-78
2022/11/22 11:37:00;;;;;;;2.20;1.10;;;10.00;99.90;;;;;;5015934;28;20149;-78
2022/11/22 11:39:28;;;;;;;1.65;1.10;;;10.00;99.90;;;;;;5002376;28;20055;-78
2022/11/22 11:41:55;;;;;;;2.88;1.42;;;9.90;99.90;;;;;;4998972;28;20063;-77
2022/11/22 11:44:35;;;;;;;2.25;1.48;;;9.90;99.90;;;;;;5018964;28;20049;-78
2022/11/22 11:47:03;;;;;;;1.80;1.13;;;9.90;99.90;;;;;;5004103;28;20124;-78
2022/11/22 11:49:31;;;;;;;1.80;0.82;;;10.00;99.90;;;;;;5013149;28;20270;-77
2022/11/22 11:51:59;;;;;;;1.63;1.10;;;10.10;99.90;;;;;;4981005;28;20061;-77
2022/11/22 11:54:39;;;;;;;1.60;1.17;;;10.10;99.90;;;;;;5009922;28;20063;-77
2022/11/22 11:57:13;;;;;;;3.22;1.42;;;10.20;99.90;;;;;;4997490;28;20060;-77
2022/11/22 11:59:42;;;;;;;3.40;1.27;;;10.20;99.90;;;;;;5000264;28;20057;-77
2022/11/22 12:02:30;;;;;;;2.30;0.80;;;10.30;99.90;;;;;;5001185;28;20358;-78
2022/11/22 12:05:06;;;;;;;0.95;0.68;;;10.40;99.90;;;;;;5016920;28;20064;-78
2022/11/22 12:07:33;;;;;;;1.17;0.88;;;10.40;99.90;;;;;;5016798;28;20570;-77
2022/11/22 12:10:00;;;;;;;0.93;0.70;;;10.50;99.90;;;;;;5019459;28;20920;-77
2022/11/22 12:12:47;;;;;;;0.90;0.50;;;10.40;99.90;;;;;;5026763;28;20048;-77
2022/11/22 12:15:14;;;;;;;1.85;0.90;;;10.40;99.90;;;;;;5025609;28;20132;-78
2022/11/22 12:17:49;;;;;;;1.33;0.80;;;10.30;99.90;;;;;;5041957;28;20061;-78
2022/11/22 12:20:34;;;;;;;1.48;0.98;;;10.10;99.90;;;;;;5026863;28;20163;-78
2022/11/22 12:23:22;;;;;;;1.23;0.98;;;10.00;99.90;;;;;;5006227;28;20048;-79
2022/11/22 12:25:49;;;;;;;1.50;1.00;;;10.00;99.90;;;;;;5018264;28;20496;-78
2022/11/22 12:28:18;;;;;;;2.05;1.00;;;10.20;99.90;;;;;;5013720;28;20060;-78
2022/11/22 12:31:06;;;;;;;1.30;0.80;;;10.40;99.90;;;;;;5008304;28;20201;-78
2022/11/22 12:33:42;;;;;;;2.08;1.20;;;10.60;99.90;;;;;;4992555;28;20140;-78
2022/11/22 12:36:19;;;;;;;1.73;1.05;;;11.10;99.90;;;;;;5021486;28;20128;-78
2022/11/22 12:38:46;;;;;;;1.20;0.80;;;11.40;99.90;;;;;;5005423;28;20499;-78
2022/11/22 12:41:15;;;;;;;0.82;0.50;;;11.50;99.90;;;;;;5003104;28;20289;-79
2022/11/22 12:43:48;;;;;;;1.27;0.90;;;11.40;99.90;;;;;;4997345;28;20184;-77
2022/11/22 12:46:20;;;;;;;1.45;1.00;;;11.30;99.90;;;;;;5029202;28;20059;-79
2022/11/22 12:48:55;;;;;;;2.17;1.00;;;11.10;99.90;;;;;;5022808;28;20415;-78
2022/11/22 12:51:49;;;;;;;1.45;1.13;;;11.00;99.90;;;;;;4993935;28;20076;-78
2022/11/22 12:54:22;;;;;;;1.33;0.93;;;11.00;99.90;;;;;;5007735;28;20128;-79
2022/11/22 12:56:52;;;;;;;1.88;0.90;;;11.10;99.90;;;;;;4999891;28;20374;-79
2022/11/22 12:59:41;;;;;;;1.65;0.80;;;11.10;99.90;;;;;;4991815;28;20133;-79
2022/11/22 13:02:14;;;;;;;2.58;1.05;;;11.00;99.90;;;;;;4991016;28;20133;-79
2022/11/22 13:04:44;;;;;;;;;;;11.00;99.90;;;;;;5013650;28;20053;-79
2022/11/22 13:07:15;;;;;;;2.40;1.20;;;10.90;99.90;;;;;;5000126;28;20298;-79
2022/11/22 13:09:47;;;;;;;1.10;0.73;;;10.90;99.90;;;;;;5018764;28;20255;-79
2022/11/22 13:12:16;;;;;;;2.78;1.42;;;10.80;99.90;;;;;;5011384;28;20057;-79
2022/11/22 13:14:48;;;;;;;1.92;0.93;;;10.70;99.90;;;;;;5017891;28;20459;-79
2022/11/22 13:17:15;;;;;;;1.73;1.00;;;10.50;99.90;;;;;;5018568;28;20136;-79
2022/11/22 13:19:54;;;;;;;1.83;1.17;;;10.50;99.90;;;;;;5009409;28;20053;-79
2022/11/22 13:22:45;;;;;;;1.38;0.73;;;10.50;99.90;;;;;;5014032;28;20053;-79
2022/11/22 13:25:42;;;;;;;0.93;0.70;;;10.40;99.90;;;;;;4981783;28;20053;-79
2022/11/22 13:28:21;;;;;;;1.90;1.45;;;10.40;99.90;;;;;;5006190;28;20563;-78
2022/11/22 13:31:06;;;;;;;1.30;0.70;;;10.40;99.90;;;;;;5011090;28;20076;-79
2022/11/22 13:33:34;;;;;;;1.08;0.75;;;10.40;99.90;;;;;;5048921;28;20059;-79
2022/11/22 13:36:26;;;;;;;0.90;0.70;;;10.50;99.90;;;;;;5031074;28;20056;-79
2022/11/22 13:39:13;;;;;;;0.82;0.77;;;10.70;99.90;;;;;;5029283;28;20139;-79
2022/11/22 13:41:59;;;;;;;2.40;1.02;;;11.30;99.90;;;;;;5011928;28;20136;-79
2022/11/22 13:44:29;;;;;;;1.42;0.95;;;12.00;99.90;;;;;;5007965;28;20050;-79
2022/11/22 13:47:02;;;;;;;1.63;0.80;;;12.10;99.90;;;;;;5021398;28;20063;-79
2022/11/22 13:49:35;;;;;;;1.38;0.73;;;12.00;99.90;;;;;;5030606;28;20077;-78
2022/11/22 13:52:13;;;;;;;1.38;1.08;;;12.10;99.90;;;;;;5030487;28;20049;-79
2022/11/22 13:54:41;;;;;;;2.97;1.33;;;12.20;99.90;;;;;;5035982;28;20466;-79
2022/11/22 13:57:34;;;;;;;1.65;0.75;;;12.70;99.90;;;;;;5001692;28;20576;-79
2022/11/22 14:00:13;;;;;;;1.00;0.90;;;13.20;99.90;;;;;;5024706;28;20056;-79
2022/11/22 14:03:15;;;;;;;1.25;0.82;;;13.60;99.90;;;;;;5011610;28;20072;-80
2022/11/22 14:05:46;;;;;;;1.00;0.90;;;13.90;99.90;;;;;;5043724;28;20044;-80
2022/11/22 14:08:25;;;;;;;1.45;0.80;;;14.00;99.90;;;;;;5025488;28;20393;-79
2022/11/22 14:10:52;;;;;;;1.65;1.20;;;14.10;99.90;;;;;;5019221;28;20055;-79
2022/11/22 14:13:25;;;;;;;1.88;0.90;;;14.10;99.90;;;;;;5042528;28;20057;-79
2022/11/22 14:16:10;;;;;;;1.27;0.77;;;14.00;99.90;;;;;;5043189;28;20152;-79
2022/11/22 14:18:54;;;;;;;1.73;0.80;;;13.60;99.90;;;;;;5045481;28;20045;-79
2022/11/22 14:21:43;;;;;;;1.70;0.80;;;13.20;99.90;;;;;;5029442;28;20060;-79
2022/11/22 14:24:14;;;;;;;1.25;0.70;;;12.90;99.90;;;;;;5064596;28;20055;-79
2022/11/22 14:26:58;;;;;;;2.60;0.90;;;13.00;99.90;;;;;;5028344;28;20510;-80
2022/11/22 14:29:50;;;;;;;0.82;0.57;;;12.90;99.90;;;;;;5035809;28;20045;-79
2022/11/22 14:32:20;;;;;;;;;;;12.90;99.90;;;;;;5023448;28;20064;-79
2022/11/22 14:35:03;;;;;;;1.17;0.77;;;12.60;99.90;;;;;;5019912;28;20441;-79
2022/11/22 14:37:33;;;;;;;1.48;0.77;;;12.40;99.90;;;;;;5035750;28;20403;-79
2022/11/22 14:40:05;;;;;;;0.95;0.70;;;12.10;99.90;;;;;;5005624;28;20057;-78